createdAt,value
2019-03-18T00:02:07.878Z,21.00
2019-03-18T00:04:36.997Z,21.50
2019-03-18T00:07:06.097Z,22.50
2019-03-18T00:09:35.177Z,24.00
2019-03-18T00:12:04.325Z,21.00
2019-03-18T00:14:35.725Z,24.00
2019-03-18T00:17:04.900Z,22.00
2019-03-18T00:19:33.901Z,24.00
2019-03-18T00:22:02.882Z,22.50
2019-03-18T00:24:31.936Z,25.50
2019-03-18T00:27:02.844Z,24.50
2019-03-18T00:29:31.907Z,23.50
2019-03-18T00:32:00.968Z,21.50
2019-03-18T00:34:29.933Z,20.50
2019-03-18T00:36:58.974Z,23.50
2019-03-18T00:39:28.001Z,26.50
2019-03-18T00:42:00.513Z,32.00
2019-03-18T00:44:28.704Z,20.00
2019-03-18T00:47:12.540Z,29.50
2019-03-18T00:50:02.765Z,22.00
2019-03-18T00:52:34.969Z,25.00
2019-03-18T00:55:11.105Z,26.00
2019-03-18T00:57:40.412Z,24.00
2019-03-18T01:00:10.368Z,20.50
2019-03-18T01:02:39.577Z,22.00
2019-03-18T01:05:16.018Z,26.00
2019-03-18T01:07:45.211Z,30.00
2019-03-18T01:10:15.663Z,29.00
2019-03-18T01:12:44.704Z,26.00
2019-03-18T01:15:27.891Z,28.50
2019-03-18T01:17:51.471Z,22.50
2019-03-18T01:20:22.075Z,21.50
2019-03-18T01:22:52.957Z,31.50
2019-03-18T01:25:22.056Z,29.00
2019-03-18T01:27:51.068Z,23.00
2019-03-18T01:30:20.172Z,17.50
2019-03-18T01:32:49.384Z,22.00
2019-03-18T01:35:36.306Z,24.00
2019-03-18T01:38:08.541Z,25.50
2019-03-18T01:40:37.674Z,24.00
2019-03-18T01:43:12.937Z,28.50
2019-03-18T01:45:56.864Z,21.00
2019-03-18T01:48:26.333Z,26.00
2019-03-18T01:53:15.477Z,22.00
2019-03-18T01:55:45.165Z,28.00
2019-03-18T01:58:45.186Z,25.00
2019-03-18T02:02:03.067Z,26.00
2019-03-18T02:05:00.557Z,17.50
2019-03-18T02:07:29.623Z,24.00
2019-03-18T02:09:58.740Z,20.50
2019-03-18T02:12:27.745Z,18.50
2019-03-18T02:14:58.035Z,16.50
2019-03-18T02:17:27.076Z,18.00
2019-03-18T02:19:56.192Z,13.50
2019-03-18T02:22:25.318Z,14.50
2019-03-18T02:24:54.346Z,17.00
2019-03-18T02:27:23.326Z,17.50
2019-03-18T02:29:52.325Z,16.50
2019-03-18T02:32:21.325Z,14.50
2019-03-18T02:34:50.329Z,12.00
2019-03-18T02:37:19.455Z,13.00
2019-03-18T02:39:48.515Z,14.50
2019-03-18T02:42:17.534Z,14.00
2019-03-18T02:44:47.619Z,14.00
2019-03-18T02:47:21.163Z,16.00
2019-03-18T02:49:51.898Z,13.50
2019-03-18T02:52:21.165Z,15.50
2019-03-18T02:54:51.048Z,15.50
2019-03-18T02:57:20.575Z,10.50
2019-03-18T02:59:49.571Z,16.00
2019-03-18T03:02:23.582Z,12.00
2019-03-18T03:04:52.893Z,11.50
2019-03-18T03:07:22.103Z,11.50
2019-03-18T03:09:53.761Z,11.50
2019-03-18T03:12:34.150Z,14.00
2019-03-18T03:15:03.315Z,11.00
2019-03-18T03:17:32.590Z,11.50
2019-03-18T03:20:04.979Z,10.00
2019-03-18T03:22:34.180Z,14.00
2019-03-18T03:25:03.547Z,12.00
2019-03-18T03:27:34.229Z,15.00
2019-03-18T03:30:03.449Z,10.00
2019-03-18T03:32:32.712Z,12.00
2019-03-18T03:35:01.908Z,11.50
2019-03-18T03:37:37.002Z,10.00
2019-03-18T03:40:09.426Z,10.50
2019-03-18T03:42:38.791Z,13.50
2019-03-18T03:48:24.219Z,14.50
2019-03-18T03:50:53.419Z,14.00
2019-03-18T03:53:22.628Z,10.00
2019-03-18T03:55:51.952Z,15.00
2019-03-18T03:58:24.235Z,14.00
2019-03-18T04:00:55.189Z,12.00
2019-03-18T04:03:37.772Z,18.00
2019-03-18T04:05:55.720Z,13.00
2019-03-18T04:08:28.826Z,18.00
2019-03-18T04:10:58.296Z,14.50
2019-03-18T04:13:27.715Z,12.50
2019-03-18T04:16:17.663Z,14.00
2019-03-18T04:18:56.120Z,10.00
2019-03-18T04:21:34.973Z,12.00
2019-03-18T04:24:04.056Z,13.00
2019-03-18T04:26:33.075Z,14.00
2019-03-18T04:29:02.149Z,11.50
2019-03-18T04:31:32.271Z,10.00
2019-03-18T04:34:01.350Z,20.50
2019-03-18T04:36:30.371Z,17.50
2019-03-18T04:38:59.480Z,11.00
2019-03-18T04:41:28.501Z,11.50
2019-03-18T04:43:57.549Z,10.50
2019-03-18T04:46:26.637Z,12.50
2019-03-18T04:48:55.639Z,12.00
2019-03-18T04:51:24.633Z,16.00
2019-03-18T04:53:53.689Z,16.50
2019-03-18T04:56:22.678Z,18.00
2019-03-18T04:58:51.701Z,17.50
2019-03-18T05:01:20.709Z,15.00
2019-03-18T05:03:49.781Z,11.50
2019-03-18T05:06:18.753Z,18.00
2019-03-18T05:08:47.779Z,17.00
2019-03-18T05:11:16.806Z,19.50
2019-03-18T05:13:45.924Z,16.50
2019-03-18T05:16:14.897Z,12.00
2019-03-18T05:18:43.913Z,14.00
2019-03-18T05:21:12.932Z,21.00
2019-03-18T05:23:41.939Z,14.00
2019-03-18T05:26:10.928Z,17.00
2019-03-18T05:28:39.949Z,14.50
2019-03-18T05:31:09.105Z,12.50
2019-03-18T05:33:38.207Z,13.50
2019-03-18T05:36:07.185Z,12.00
2019-03-18T05:38:36.284Z,19.50
2019-03-18T05:41:05.411Z,16.00
2019-03-18T05:43:34.415Z,19.00
2019-03-18T05:46:05.525Z,12.00
2019-03-18T05:48:34.811Z,20.00
2019-03-18T05:51:03.824Z,12.50
2019-03-18T05:53:32.853Z,12.00
2019-03-18T05:56:03.637Z,19.50
2019-03-18T05:58:32.750Z,23.50
2019-03-18T06:01:01.837Z,12.00
2019-03-18T06:03:30.868Z,14.00
2019-03-18T06:05:59.946Z,13.00
2019-03-18T06:08:29.025Z,13.00
2019-03-18T06:10:58.105Z,15.00
2019-03-18T06:13:27.150Z,18.50
2019-03-18T06:15:56.159Z,14.00
2019-03-18T06:18:25.186Z,17.00
2019-03-18T06:20:54.176Z,12.00
2019-03-18T06:23:23.254Z,12.50
2019-03-18T06:25:52.285Z,15.50
2019-03-18T06:28:21.282Z,16.00
2019-03-18T06:30:50.326Z,15.50
2019-03-18T06:33:19.329Z,16.00
2019-03-18T06:35:48.319Z,12.00
2019-03-18T06:38:17.319Z,18.00
2019-03-18T06:40:46.413Z,15.50
2019-03-18T06:43:15.450Z,15.00
2019-03-18T06:45:44.452Z,12.50
2019-03-18T06:48:13.423Z,18.50
2019-03-18T06:50:42.467Z,18.00
2019-03-18T06:53:11.445Z,14.50
2019-03-18T06:55:40.480Z,17.00
2019-03-18T06:58:09.461Z,15.50
2019-03-18T07:00:38.513Z,12.00
2019-03-18T07:03:07.512Z,15.00
2019-03-18T07:05:36.499Z,20.00
2019-03-18T07:08:05.662Z,20.00
2019-03-18T07:10:34.669Z,14.50
2019-03-18T07:13:03.736Z,19.50
2019-03-18T07:15:32.830Z,16.00
2019-03-18T07:18:01.823Z,16.00
2019-03-18T07:20:30.879Z,18.50
2019-03-18T07:22:59.986Z,16.00
2019-03-18T07:25:29.082Z,18.00
2019-03-18T07:27:58.190Z,14.00
2019-03-18T07:30:27.199Z,20.00
2019-03-18T07:32:56.194Z,14.00
2019-03-18T07:35:27.477Z,20.00
2019-03-18T07:37:56.483Z,18.00
2019-03-18T07:40:25.669Z,15.00
2019-03-18T07:42:54.764Z,17.00
2019-03-18T07:45:23.821Z,18.00
2019-03-18T07:47:52.868Z,19.50
2019-03-18T07:50:21.993Z,21.00
2019-03-18T07:52:50.994Z,16.50
2019-03-18T07:55:20.039Z,18.00
2019-03-18T07:57:49.096Z,17.50
2019-03-18T08:00:18.254Z,13.50
2019-03-18T08:02:47.344Z,16.00
2019-03-18T08:05:16.412Z,16.50
2019-03-18T08:07:45.435Z,19.00
2019-03-18T08:10:14.704Z,23.00
2019-03-18T08:12:43.811Z,15.00
2019-03-18T08:15:12.905Z,12.00
2019-03-18T08:17:41.993Z,17.50
2019-03-18T08:20:11.199Z,14.00
2019-03-18T08:22:40.265Z,11.00
2019-03-18T08:25:09.596Z,17.00
2019-03-18T08:27:38.690Z,17.00
2019-03-18T08:30:08.344Z,14.00
2019-03-18T08:32:39.521Z,20.00
2019-03-18T08:35:08.550Z,15.50
2019-03-18T08:37:37.553Z,12.00
2019-03-18T08:40:07.196Z,22.00
2019-03-18T08:42:36.359Z,26.50
2019-03-18T08:45:05.835Z,15.00
2019-03-18T08:47:34.845Z,19.00
2019-03-18T08:50:04.012Z,15.50
2019-03-18T08:52:33.077Z,12.50
2019-03-18T08:55:02.142Z,17.00
2019-03-18T08:57:31.120Z,12.50
2019-03-18T09:00:00.356Z,16.50
2019-03-18T09:02:29.360Z,31.50
2019-03-18T09:04:58.529Z,20.00
2019-03-18T09:07:27.600Z,12.00
2019-03-18T09:09:58.115Z,17.00
2019-03-18T09:12:27.344Z,13.50
2019-03-18T09:14:56.360Z,12.50
2019-03-18T09:17:25.398Z,18.50
2019-03-18T09:19:54.421Z,11.00
2019-03-18T09:22:23.651Z,17.50
2019-03-18T09:24:53.061Z,12.00
2019-03-18T09:27:22.108Z,20.00
2019-03-18T09:29:51.235Z,12.25
2019-03-18T09:32:22.150Z,13.25
2019-03-18T09:34:51.252Z,13.50
2019-03-18T09:37:20.338Z,14.25
2019-03-18T09:39:49.442Z,30.00
2019-03-18T09:42:18.675Z,14.50
2019-03-18T09:44:47.802Z,20.75
2019-03-18T09:47:16.931Z,22.25
2019-03-18T09:49:46.028Z,53.50
2019-03-18T09:52:15.104Z,15.00
2019-03-18T09:54:44.175Z,16.00
2019-03-18T09:57:25.078Z,16.75
2019-03-18T09:59:44.065Z,13.50
2019-03-18T10:02:13.187Z,17.00
2019-03-18T10:04:42.178Z,15.25
2019-03-18T10:07:13.571Z,17.25
2019-03-18T10:09:43.270Z,14.75
2019-03-18T10:12:12.247Z,14.00
2019-03-18T10:14:41.328Z,14.00
2019-03-18T10:17:10.395Z,14.00
2019-03-18T10:19:39.381Z,15.00
2019-03-18T10:22:08.503Z,15.50
2019-03-18T10:24:37.528Z,11.75
2019-03-18T10:27:06.624Z,13.50
2019-03-18T10:29:35.610Z,9.50
2019-03-18T10:32:04.791Z,13.25
2019-03-18T10:34:33.882Z,14.75
2019-03-18T10:37:05.308Z,12.00
2019-03-18T10:39:34.306Z,11.25
2019-03-18T10:42:03.417Z,15.00
2019-03-18T10:44:32.473Z,13.00
2019-03-18T10:47:03.152Z,12.75
2019-03-18T10:49:32.185Z,15.25
2019-03-18T10:52:01.267Z,15.25
2019-03-18T10:54:31.395Z,13.50
2019-03-18T10:57:00.615Z,16.50
2019-03-18T10:59:29.646Z,14.50
2019-03-18T11:01:58.691Z,11.50
2019-03-18T11:04:27.738Z,14.50
2019-03-18T11:06:56.882Z,12.50
2019-03-18T11:09:25.980Z,9.00
2019-03-18T11:11:55.076Z,13.00
2019-03-18T11:14:24.144Z,14.00
2019-03-18T11:16:53.205Z,17.50
2019-03-18T11:19:22.272Z,11.00
2019-03-18T11:21:51.275Z,12.75
2019-03-18T11:24:22.948Z,9.25
2019-03-18T11:26:52.030Z,11.50
2019-03-18T11:29:21.168Z,10.75
2019-03-18T11:31:50.248Z,12.75
2019-03-18T11:34:19.248Z,11.50
2019-03-18T11:36:48.240Z,11.50
2019-03-18T11:39:17.264Z,13.00
2019-03-18T11:41:46.265Z,13.00
2019-03-18T11:44:15.286Z,11.00
2019-03-18T11:46:44.428Z,13.00
2019-03-18T11:49:13.392Z,13.00
2019-03-18T11:51:42.410Z,18.00
2019-03-18T11:54:11.554Z,16.00
2019-03-18T11:56:41.480Z,13.75
2019-03-18T11:59:13.522Z,10.75
2019-03-18T12:01:42.576Z,11.50
2019-03-18T12:04:11.680Z,15.75
2019-03-18T12:06:40.724Z,11.50
2019-03-18T12:09:09.970Z,13.75
2019-03-18T12:11:39.046Z,15.50
2019-03-18T12:14:08.023Z,19.75
2019-03-18T12:16:37.046Z,16.75
2019-03-18T12:19:06.129Z,18.50
2019-03-18T12:21:35.136Z,14.00
2019-03-18T12:24:04.228Z,11.00
2019-03-18T12:26:33.331Z,21.00
2019-03-18T12:29:02.526Z,9.50
2019-03-18T12:31:31.559Z,14.50
2019-03-18T12:34:00.538Z,12.50
2019-03-18T12:36:29.618Z,18.75
2019-03-18T12:38:58.820Z,12.00
2019-03-18T12:41:28.041Z,13.00
2019-03-18T12:43:57.104Z,20.00
2019-03-18T12:46:26.216Z,13.50
2019-03-18T12:48:55.441Z,15.00
2019-03-18T12:51:24.499Z,12.50
2019-03-18T12:53:53.497Z,14.00
2019-03-18T12:56:22.518Z,14.00
2019-03-18T12:58:51.516Z,11.00
2019-03-18T13:01:20.670Z,17.00
2019-03-18T13:03:50.098Z,13.50
2019-03-18T13:06:19.305Z,12.25
2019-03-18T13:08:48.325Z,17.00
2019-03-18T13:11:17.308Z,20.00
2019-03-18T13:13:46.284Z,18.50
2019-03-18T13:16:18.436Z,13.25
2019-03-18T13:18:47.457Z,25.25
2019-03-18T13:21:21.133Z,11.75
2019-03-18T13:23:50.292Z,13.75
2019-03-18T13:26:19.269Z,15.75
2019-03-18T13:28:48.304Z,14.25
2019-03-18T13:31:19.101Z,16.75
2019-03-18T13:33:49.494Z,13.75
2019-03-18T13:36:18.479Z,20.25
2019-03-18T13:38:47.544Z,13.75
2019-03-18T13:41:16.877Z,13.75
2019-03-18T13:43:45.913Z,15.00
2019-03-18T13:46:14.987Z,14.50
2019-03-18T13:48:43.999Z,18.25
2019-03-18T13:51:20.908Z,21.00
2019-03-18T13:53:43.796Z,13.00
2019-03-18T13:56:12.781Z,11.00
2019-03-18T13:58:41.784Z,15.00
2019-03-18T14:01:10.933Z,12.00
2019-03-18T14:03:40.003Z,12.50
2019-03-18T14:06:17.004Z,11.00
2019-03-18T14:08:46.072Z,14.00
2019-03-18T14:11:15.160Z,14.50
2019-03-18T14:13:44.149Z,13.25
2019-03-18T14:16:13.173Z,13.25
2019-03-18T14:18:42.270Z,14.75
2019-03-18T14:21:11.380Z,22.50
2019-03-18T14:23:40.367Z,14.75
2019-03-18T14:26:09.389Z,12.00
2019-03-18T14:28:39.736Z,11.50
2019-03-18T14:31:08.722Z,14.25
2019-03-18T14:33:37.739Z,11.00
2019-03-18T14:36:06.719Z,12.50
2019-03-18T14:38:38.404Z,15.75
2019-03-18T14:41:07.775Z,13.50
2019-03-18T14:43:36.793Z,10.25
2019-03-18T14:46:05.948Z,13.50
2019-03-18T14:48:37.086Z,15.50
2019-03-18T14:51:11.923Z,16.50
2019-03-18T14:53:50.293Z,15.00
2019-03-18T14:56:19.663Z,12.00
2019-03-18T14:58:48.699Z,12.00
2019-03-18T15:01:17.774Z,13.75
2019-03-18T15:03:49.072Z,11.00
2019-03-18T15:06:21.199Z,13.00
2019-03-18T15:08:51.766Z,10.00
2019-03-18T15:11:20.792Z,11.00
2019-03-18T15:13:51.392Z,13.50
2019-03-18T15:16:20.573Z,12.00
2019-03-18T15:18:49.970Z,12.75
2019-03-18T15:21:18.968Z,10.75
2019-03-18T15:23:47.957Z,15.25
2019-03-18T15:26:16.950Z,12.75
2019-03-18T15:28:45.963Z,12.50
2019-03-18T15:31:14.982Z,11.00
2019-03-18T15:33:43.974Z,15.25
2019-03-18T15:36:12.960Z,15.50
2019-03-18T15:38:41.994Z,22.75
2019-03-18T15:41:16.201Z,17.50
2019-03-18T15:43:47.591Z,13.00
2019-03-18T15:46:16.699Z,41.00
2019-03-18T15:48:45.825Z,17.50
2019-03-18T15:51:14.986Z,13.50
2019-03-18T15:53:44.007Z,15.00
2019-03-18T15:56:13.094Z,12.00
2019-03-18T15:58:42.082Z,17.25
2019-03-18T16:01:11.302Z,18.75
2019-03-18T16:04:01.532Z,28.50
2019-03-18T16:06:30.561Z,12.50
2019-03-18T16:08:59.670Z,15.00
2019-03-18T16:11:37.147Z,15.25
2019-03-18T16:14:06.931Z,13.25
2019-03-18T16:16:35.915Z,21.75
2019-03-18T16:19:08.116Z,17.50
2019-03-18T16:21:37.115Z,15.25
2019-03-18T16:24:07.696Z,13.00
2019-03-18T16:26:44.917Z,13.00
2019-03-18T16:29:13.996Z,15.50
2019-03-18T16:31:43.000Z,15.75
2019-03-18T16:34:12.133Z,11.00
2019-03-18T16:36:41.132Z,18.00
2019-03-18T16:39:10.262Z,16.00
2019-03-18T16:41:39.248Z,21.50
2019-03-18T16:44:08.287Z,12.50
2019-03-18T16:46:37.386Z,13.75
2019-03-18T16:49:06.480Z,11.75
2019-03-18T16:51:41.800Z,11.00
2019-03-18T16:54:10.878Z,18.00
2019-03-18T16:56:39.972Z,21.75
2019-03-18T16:59:09.006Z,17.00
2019-03-18T17:01:38.122Z,20.25
2019-03-18T17:04:07.181Z,15.75
2019-03-18T17:06:37.967Z,11.75
2019-03-18T17:09:08.157Z,23.75
2019-03-18T17:11:37.249Z,15.75
2019-03-18T17:14:06.252Z,12.50
2019-03-18T17:16:35.281Z,19.75
2019-03-18T17:19:04.359Z,17.75
2019-03-18T17:21:33.739Z,28.75
2019-03-18T17:24:02.754Z,18.25
2019-03-18T17:26:31.742Z,20.25
2019-03-18T17:29:00.773Z,31.00
2019-03-18T17:31:30.496Z,15.75
2019-03-18T17:33:59.574Z,17.50
2019-03-18T17:36:28.596Z,14.75
2019-03-18T17:38:57.586Z,11.75
2019-03-18T17:41:26.660Z,16.50
2019-03-18T17:43:55.837Z,19.50
2019-03-18T17:46:24.875Z,15.00
2019-03-18T17:48:53.896Z,18.00
2019-03-18T17:51:22.906Z,19.00
2019-03-18T17:53:51.915Z,14.50
2019-03-18T17:56:29.713Z,19.00
2019-03-18T17:58:51.659Z,18.00
2019-03-18T18:01:20.668Z,12.00
2019-03-18T18:03:49.750Z,20.00
2019-03-18T18:06:18.853Z,18.50
2019-03-18T18:08:47.872Z,23.50
2019-03-18T18:11:16.958Z,20.00
2019-03-18T18:13:46.049Z,18.00
2019-03-18T18:16:15.109Z,20.50
2019-03-18T18:18:44.204Z,24.00
2019-03-18T18:21:13.221Z,16.00
2019-03-18T18:23:42.229Z,16.00
2019-03-18T18:26:11.272Z,18.50
2019-03-18T18:28:40.430Z,14.50
2019-03-18T18:31:09.451Z,14.00
2019-03-18T18:33:38.550Z,17.50
2019-03-18T18:36:07.531Z,12.00
2019-03-18T18:38:36.552Z,12.00
2019-03-18T18:41:05.700Z,18.00
2019-03-18T18:43:34.795Z,16.00
2019-03-18T18:46:03.841Z,14.00
2019-03-18T18:48:32.825Z,17.50
2019-03-18T18:51:01.857Z,26.00
2019-03-18T18:53:32.715Z,16.00
2019-03-18T18:56:01.784Z,19.50
2019-03-18T18:58:30.794Z,20.00
2019-03-18T19:00:59.970Z,18.00
2019-03-18T19:03:31.934Z,20.50
2019-03-18T19:06:03.026Z,17.50
2019-03-18T19:08:32.064Z,19.00
2019-03-18T19:11:02.912Z,19.50
2019-03-18T19:13:31.901Z,28.00
2019-03-18T19:16:00.915Z,24.00
2019-03-18T19:18:37.787Z,17.50
2019-03-18T19:21:00.769Z,18.00
2019-03-18T19:23:37.589Z,19.00
2019-03-18T19:26:00.713Z,19.50
2019-03-18T19:28:29.713Z,13.50
2019-03-18T19:30:58.811Z,18.00
2019-03-18T19:33:27.812Z,22.00
2019-03-18T19:35:57.274Z,25.50
2019-03-18T19:38:26.348Z,22.50
2019-03-18T19:40:55.419Z,22.50
2019-03-18T19:43:24.414Z,35.00
2019-03-18T19:45:54.652Z,23.50
2019-03-18T19:48:23.673Z,21.50
2019-03-18T19:50:52.869Z,22.50
2019-03-18T19:53:21.970Z,26.50
2019-03-18T19:55:51.756Z,19.00
2019-03-18T19:58:23.247Z,20.50
2019-03-18T20:00:52.360Z,24.00
2019-03-18T20:03:21.471Z,26.00
2019-03-18T20:05:50.474Z,25.00
2019-03-18T20:08:20.714Z,25.50
2019-03-18T20:10:51.445Z,34.00
2019-03-18T20:13:20.821Z,22.50
2019-03-18T20:15:49.922Z,31.00
2019-03-18T20:18:18.976Z,33.50
2019-03-18T20:20:48.069Z,29.00
2019-03-18T20:23:17.171Z,40.50
2019-03-18T20:25:48.382Z,25.00
2019-03-18T20:28:17.386Z,21.00
2019-03-18T20:30:46.920Z,20.00
2019-03-18T20:33:15.903Z,24.00
2019-03-18T20:35:44.973Z,28.00
2019-03-18T20:38:14.008Z,22.00
2019-03-18T20:40:42.982Z,26.00
2019-03-18T20:43:12.157Z,19.50
2019-03-18T20:45:41.239Z,30.00
2019-03-18T20:48:10.556Z,24.00
2019-03-18T20:50:39.667Z,21.00
2019-03-18T20:53:08.745Z,16.00
2019-03-18T20:55:37.768Z,18.00
2019-03-18T20:58:06.840Z,15.50
2019-03-18T21:00:35.958Z,21.00
2019-03-18T21:03:05.125Z,19.50
2019-03-18T21:05:34.261Z,24.00
2019-03-18T21:08:03.383Z,43.00
2019-03-18T21:10:32.362Z,36.50
2019-03-18T21:13:01.776Z,30.00
2019-03-18T21:15:30.830Z,28.00
2019-03-18T21:18:00.179Z,25.50
2019-03-18T21:20:29.595Z,23.00
2019-03-18T21:22:58.696Z,18.00
2019-03-18T21:25:27.778Z,20.00
2019-03-18T21:27:56.819Z,25.00
2019-03-18T21:30:25.940Z,21.00
2019-03-18T21:32:55.021Z,20.00
2019-03-18T21:35:24.067Z,21.00
2019-03-18T21:37:53.041Z,22.50
2019-03-18T21:40:22.197Z,19.50
2019-03-18T21:42:53.504Z,22.50
2019-03-18T21:45:25.615Z,19.50
2019-03-18T21:47:54.759Z,21.00
2019-03-18T21:50:24.164Z,14.50
2019-03-18T21:52:53.335Z,17.00
2019-03-18T21:55:22.359Z,16.00
2019-03-18T21:57:51.440Z,20.00
2019-03-18T22:00:20.807Z,29.00
2019-03-18T22:02:50.072Z,32.00
2019-03-18T22:05:19.214Z,22.00
2019-03-18T22:07:48.285Z,23.00
2019-03-18T22:10:17.560Z,23.50
2019-03-18T22:12:47.555Z,19.50
2019-03-18T22:15:16.775Z,19.50
2019-03-18T22:17:46.089Z,19.00
2019-03-18T22:20:15.389Z,25.50
2019-03-18T22:22:44.664Z,18.00
2019-03-18T22:25:13.964Z,26.00
2019-03-18T22:27:42.967Z,21.00
2019-03-18T22:30:12.426Z,38.50
2019-03-18T22:32:41.497Z,60.50
2019-03-18T22:35:10.855Z,51.00
2019-03-18T22:37:39.899Z,46.50
2019-03-18T22:40:09.171Z,53.50
2019-03-18T22:42:38.210Z,50.00
2019-03-18T22:45:07.695Z,47.50
2019-03-18T22:47:36.691Z,58.00
2019-03-18T22:50:06.699Z,64.50
2019-03-18T22:52:35.794Z,58.50
2019-03-18T22:55:05.963Z,48.50
2019-03-18T22:57:35.055Z,50.50
2019-03-18T23:00:05.144Z,63.50
2019-03-18T23:02:34.255Z,45.50
2019-03-18T23:05:03.427Z,51.00
2019-03-18T23:07:32.444Z,49.00
2019-03-18T23:10:01.460Z,56.50
2019-03-18T23:12:30.455Z,48.50
2019-03-18T23:14:59.494Z,48.50
2019-03-18T23:17:28.541Z,45.50
2019-03-18T23:19:57.602Z,43.00
2019-03-18T23:22:26.786Z,48.00
2019-03-18T23:25:06.284Z,46.00
2019-03-18T23:27:26.578Z,42.50
2019-03-18T23:29:55.614Z,39.00
2019-03-18T23:32:24.737Z,35.50
2019-03-18T23:34:53.792Z,32.00
2019-03-18T23:37:22.863Z,33.50
2019-03-18T23:39:51.837Z,36.00
2019-03-18T23:42:20.839Z,35.50
2019-03-18T23:44:49.895Z,29.50
2019-03-18T23:47:18.947Z,30.00
2019-03-18T23:49:48.008Z,30.50
2019-03-18T23:52:17.101Z,36.00
2019-03-18T23:54:46.240Z,29.00
2019-03-18T23:57:15.259Z,29.50
2019-03-18T23:59:44.311Z,26.00
